CEB5065 RJAA-RPVM
Flight info
| Callsign | CEB5065 |
|---|---|
| Flight time | N/A |
| Altitude | 32000 |
| Route | SAMUS Y84 BUBDO A590 GURAG G578 TAC DCT LARYO LARYO3P |
| Aircraft | A21N/M-SDE2E3FGHIJ1RWXY/LB1 |
Departure
| Time | 2026-05-06 02:48 |
|---|---|
| Airport | Narita International Airport (RJAA) |
Arrival
| Time | N/A |
|---|---|
| Airport | Mactan Cebu International Airport (RPVM) |
| Time | Latitude | Longitude | Altitude | Speed | Heading |
|---|---|---|---|---|---|
| 2026-05-06 02:32 | 35.75723 | 140.38741 | 134 ft | 0 kts | 240° |
| 2026-05-06 02:37 | 35.75721 | 140.38734 | 134 ft | 2 kts | 239° |
| 2026-05-06 02:38 | 35.75708 | 140.38709 | 135 ft | 4 kts | 239° |
| 2026-05-06 02:38 | 35.75689 | 140.38663 | 135 ft | 7 kts | 252° |
| 2026-05-06 02:38 | 35.75696 | 140.38600 | 135 ft | 5 kts | 301° |
| 2026-05-06 02:38 | 35.75715 | 140.38576 | 135 ft | 4 kts | 323° |
| 2026-05-06 02:39 | 35.75758 | 140.38542 | 135 ft | 9 kts | 328° |
| 2026-05-06 02:39 | 35.75827 | 140.38492 | 135 ft | 12 kts | 328° |
| 2026-05-06 02:39 | 35.75903 | 140.38437 | 137 ft | 12 kts | 330° |
| 2026-05-06 02:39 | 35.75979 | 140.38384 | 138 ft | 12 kts | 329° |
| 2026-05-06 02:40 | 35.76057 | 140.38327 | 139 ft | 13 kts | 329° |
| 2026-05-06 02:40 | 35.76140 | 140.38266 | 139 ft | 14 kts | 329° |
| 2026-05-06 02:40 | 35.76228 | 140.38200 | 139 ft | 15 kts | 328° |
| 2026-05-06 02:40 | 35.76323 | 140.38133 | 138 ft | 16 kts | 330° |
| 2026-05-06 02:41 | 35.76427 | 140.38058 | 137 ft | 18 kts | 329° |
| 2026-05-06 02:41 | 35.76540 | 140.37976 | 135 ft | 19 kts | 329° |
| 2026-05-06 02:41 | 35.76601 | 140.37932 | 133 ft | 4 kts | 329° |
| 2026-05-06 02:41 | 35.76618 | 140.37892 | 133 ft | 6 kts | 261° |
| 2026-05-06 02:42 | 35.76595 | 140.37833 | 132 ft | 9 kts | 240° |
| 2026-05-06 02:42 | 35.76563 | 140.37761 | 131 ft | 6 kts | 250° |
| 2026-05-06 02:42 | 35.76575 | 140.37711 | 130 ft | 5 kts | 320° |
| 2026-05-06 02:42 | 35.76606 | 140.37686 | 129 ft | 6 kts | 329° |
| 2026-05-06 02:43 | 35.76653 | 140.37651 | 129 ft | 9 kts | 329° |
| 2026-05-06 02:43 | 35.76716 | 140.37605 | 128 ft | 11 kts | 329° |
| 2026-05-06 02:43 | 35.76794 | 140.37549 | 127 ft | 13 kts | 330° |
| 2026-05-06 02:43 | 35.76882 | 140.37486 | 126 ft | 15 kts | 330° |
| 2026-05-06 02:44 | 35.76977 | 140.37416 | 126 ft | 16 kts | 328° |
| 2026-05-06 02:44 | 35.77077 | 140.37344 | 125 ft | 17 kts | 329° |
| 2026-05-06 02:44 | 35.77187 | 140.37265 | 124 ft | 18 kts | 329° |
| 2026-05-06 02:44 | 35.77302 | 140.37181 | 123 ft | 19 kts | 328° |
| 2026-05-06 02:45 | 35.77396 | 140.37111 | 122 ft | 10 kts | 330° |
| 2026-05-06 02:45 | 35.77450 | 140.37073 | 122 ft | 6 kts | 330° |
| 2026-05-06 02:45 | 35.77488 | 140.37045 | 122 ft | 3 kts | 317° |
| 2026-05-06 02:45 | 35.77499 | 140.37012 | 122 ft | 4 kts | 271° |
| 2026-05-06 02:46 | 35.77490 | 140.36971 | 123 ft | 4 kts | 244° |
| 2026-05-06 02:46 | 35.77475 | 140.36937 | 124 ft | 3 kts | 239° |
| 2026-05-06 02:46 | 35.77462 | 140.36911 | 125 ft | 3 kts | 239° |
| 2026-05-06 02:46 | 35.77451 | 140.36887 | 125 ft | 4 kts | 239° |
| 2026-05-06 02:47 | 35.77432 | 140.36855 | 126 ft | 3 kts | 221° |
| 2026-05-06 02:47 | 35.77409 | 140.36848 | 127 ft | 3 kts | 157° |
| 2026-05-06 02:47 | 35.77381 | 140.36870 | 127 ft | 9 kts | 149° |
| 2026-05-06 02:47 | 35.77162 | 140.37027 | 126 ft | 71 kts | 149° |
| 2026-05-06 02:48 | 35.76547 | 140.37473 | 129 ft | 132 kts | 150° |
| 2026-05-06 02:48 | 35.75608 | 140.38155 | 176 ft | 176 kts | 150° |
| 2026-05-06 02:48 | 35.74561 | 140.38933 | 740 ft | 177 kts | 152° |
| 2026-05-06 02:48 | 35.73510 | 140.39670 | 1433 ft | 178 kts | 152° |
| 2026-05-06 02:49 | 35.72443 | 140.40430 | 2079 ft | 178 kts | 152° |
| 2026-05-06 02:49 | 35.71349 | 140.41205 | 2378 ft | 191 kts | 152° |
| 2026-05-06 02:49 | 35.70149 | 140.42056 | 2667 ft | 206 kts | 152° |
| 2026-05-06 02:49 | 35.68864 | 140.42972 | 2900 ft | 225 kts | 152° |
| 2026-05-06 02:50 | 35.67459 | 140.43979 | 3223 ft | 241 kts | 152° |
| 2026-05-06 02:50 | 35.65956 | 140.45058 | 3599 ft | 255 kts | 152° |
| 2026-05-06 02:50 | 35.64423 | 140.46161 | 4224 ft | 258 kts | 152° |
| 2026-05-06 02:50 | 35.62889 | 140.47264 | 4921 ft | 258 kts | 152° |
| 2026-05-06 02:51 | 35.61336 | 140.48379 | 5581 ft | 260 kts | 152° |
| 2026-05-06 02:51 | 35.59766 | 140.49506 | 6236 ft | 262 kts | 152° |
| 2026-05-06 02:51 | 35.58201 | 140.50626 | 6856 ft | 265 kts | 152° |
| 2026-05-06 02:51 | 35.56597 | 140.51770 | 7488 ft | 267 kts | 151° |
| 2026-05-06 02:52 | 35.54991 | 140.52919 | 8101 ft | 269 kts | 151° |
| 2026-05-06 02:52 | 35.53368 | 140.54083 | 8697 ft | 272 kts | 150° |
| 2026-05-06 02:52 | 35.51740 | 140.55254 | 9262 ft | 275 kts | 150° |
| 2026-05-06 02:52 | 35.50077 | 140.56448 | 9803 ft | 278 kts | 150° |
| 2026-05-06 02:53 | 35.48422 | 140.57640 | 10321 ft | 282 kts | 150° |
| 2026-05-06 02:53 | 35.46679 | 140.58893 | 10585 ft | 295 kts | 150° |
| 2026-05-06 02:53 | 35.44867 | 140.60191 | 10833 ft | 308 kts | 149° |
| 2026-05-06 02:53 | 35.43107 | 140.61784 | 11073 ft | 323 kts | 139° |
| 2026-05-06 02:54 | 35.41562 | 140.63875 | 11309 ft | 337 kts | 128° |
| 2026-05-06 02:54 | 35.40197 | 140.66260 | 11537 ft | 350 kts | 126° |
| 2026-05-06 02:54 | 35.38823 | 140.68780 | 11757 ft | 362 kts | 126° |
| 2026-05-06 02:54 | 35.37408 | 140.71376 | 12050 ft | 370 kts | 127° |
| 2026-05-06 02:55 | 35.35973 | 140.73991 | 12529 ft | 373 kts | 127° |
| 2026-05-06 02:55 | 35.34520 | 140.76625 | 13016 ft | 375 kts | 127° |
| 2026-05-06 02:55 | 35.33059 | 140.79262 | 13431 ft | 379 kts | 128° |
| 2026-05-06 02:55 | 35.31553 | 140.81969 | 13822 ft | 383 kts | 128° |
| 2026-05-06 02:56 | 35.30047 | 140.84668 | 14169 ft | 389 kts | 129° |
| 2026-05-06 02:56 | 35.28524 | 140.87395 | 14526 ft | 394 kts | 128° |
| 2026-05-06 02:56 | 35.26959 | 140.90195 | 14875 ft | 399 kts | 129° |
| 2026-05-06 02:56 | 35.25407 | 140.92970 | 15209 ft | 403 kts | 129° |
| 2026-05-06 02:57 | 35.23794 | 140.95847 | 15584 ft | 407 kts | 129° |
| 2026-05-06 02:57 | 35.22175 | 140.98662 | 15906 ft | 409 kts | 133° |
| 2026-05-06 02:57 | 35.20090 | 141.00932 | 16181 ft | 401 kts | 154° |
| 2026-05-06 02:57 | 35.17551 | 141.02170 | 16552 ft | 391 kts | 173° |
| 2026-05-06 02:58 | 35.14858 | 141.02512 | 16909 ft | 388 kts | 182° |
| 2026-05-06 02:58 | 35.12125 | 141.02684 | 17223 ft | 392 kts | 182° |
| 2026-05-06 02:58 | 35.09388 | 141.02855 | 17572 ft | 395 kts | 182° |
| 2026-05-06 02:58 | 35.06632 | 141.03040 | 17846 ft | 400 kts | 182° |
| 2026-05-06 02:59 | 35.03858 | 141.03236 | 18157 ft | 403 kts | 182° |
| 2026-05-06 02:59 | 35.01066 | 141.03445 | 18493 ft | 405 kts | 182° |
| 2026-05-06 02:59 | 34.98228 | 141.03665 | 18893 ft | 405 kts | 182° |
| 2026-05-06 02:59 | 34.95433 | 141.03886 | 19283 ft | 405 kts | 182° |
| 2026-05-06 03:00 | 34.92619 | 141.04106 | 19682 ft | 404 kts | 182° |
| 2026-05-06 03:00 | 34.89849 | 141.04324 | 19996 ft | 406 kts | 182° |
| 2026-05-06 03:00 | 34.86987 | 141.04550 | 20320 ft | 407 kts | 182° |
| 2026-05-06 03:00 | 34.84190 | 141.04774 | 20702 ft | 406 kts | 182° |
| 2026-05-06 03:01 | 34.81365 | 141.04994 | 20998 ft | 407 kts | 182° |
| 2026-05-06 03:01 | 34.78519 | 141.05215 | 21295 ft | 408 kts | 182° |
| 2026-05-06 03:01 | 34.75700 | 141.05434 | 21590 ft | 409 kts | 183° |
| 2026-05-06 03:01 | 34.72866 | 141.05653 | 21882 ft | 410 kts | 182° |
| 2026-05-06 03:02 | 34.70031 | 141.05873 | 22199 ft | 410 kts | 182° |
| 2026-05-06 03:02 | 34.67181 | 141.06099 | 22484 ft | 411 kts | 183° |
| 2026-05-06 03:02 | 34.64301 | 141.06320 | 22707 ft | 413 kts | 183° |
| 2026-05-06 03:02 | 34.61454 | 141.06514 | 22977 ft | 411 kts | 186° |
| 2026-05-06 03:03 | 34.58645 | 141.06079 | 23190 ft | 400 kts | 201° |
| 2026-05-06 03:03 | 34.56118 | 141.04774 | 23456 ft | 392 kts | 214° |
| 2026-05-06 03:03 | 34.53979 | 141.02785 | 23709 ft | 388 kts | 225° |
| 2026-05-06 03:03 | 34.52012 | 141.00514 | 23790 ft | 393 kts | 226° |
| 2026-05-06 03:04 | 34.50032 | 140.98201 | 23890 ft | 398 kts | 226° |
| 2026-05-06 03:04 | 34.48037 | 140.95869 | 23991 ft | 402 kts | 226° |
| 2026-05-06 03:04 | 34.46012 | 140.93501 | 24077 ft | 406 kts | 226° |
| 2026-05-06 03:04 | 34.43990 | 140.91138 | 24240 ft | 408 kts | 226° |
| 2026-05-06 03:05 | 34.41952 | 140.88763 | 24526 ft | 407 kts | 226° |
| 2026-05-06 03:05 | 34.39906 | 140.86380 | 24816 ft | 405 kts | 226° |
| 2026-05-06 03:05 | 34.37875 | 140.84013 | 25115 ft | 404 kts | 227° |
| 2026-05-06 03:05 | 34.35870 | 140.81677 | 25396 ft | 403 kts | 227° |
| 2026-05-06 03:06 | 34.33849 | 140.79323 | 25668 ft | 402 kts | 226° |
| 2026-05-06 03:06 | 34.31839 | 140.76979 | 25970 ft | 400 kts | 227° |
| 2026-05-06 03:06 | 34.29861 | 140.74681 | 26230 ft | 399 kts | 226° |
| 2026-05-06 03:06 | 34.27858 | 140.72360 | 26486 ft | 398 kts | 227° |
| 2026-05-06 03:07 | 34.25869 | 140.70052 | 26749 ft | 397 kts | 226° |
| 2026-05-06 03:07 | 34.23879 | 140.67750 | 27022 ft | 396 kts | 227° |
| 2026-05-06 03:07 | 34.21886 | 140.65445 | 27233 ft | 395 kts | 226° |
| 2026-05-06 03:07 | 34.19896 | 140.63139 | 27460 ft | 395 kts | 227° |
| 2026-05-06 03:08 | 34.17942 | 140.60881 | 27672 ft | 394 kts | 227° |
| 2026-05-06 03:08 | 34.15943 | 140.58572 | 27915 ft | 394 kts | 226° |
| 2026-05-06 03:08 | 34.13968 | 140.56288 | 28148 ft | 393 kts | 226° |
| 2026-05-06 03:08 | 34.12009 | 140.54030 | 28462 ft | 390 kts | 227° |
| 2026-05-06 03:09 | 34.10054 | 140.51787 | 28665 ft | 390 kts | 227° |
| 2026-05-06 03:09 | 34.08088 | 140.49513 | 28863 ft | 389 kts | 227° |
| 2026-05-06 03:09 | 34.06148 | 140.47284 | 29093 ft | 389 kts | 226° |
| 2026-05-06 03:09 | 34.04183 | 140.45024 | 29361 ft | 387 kts | 226° |
| 2026-05-06 03:10 | 34.02266 | 140.42818 | 29664 ft | 385 kts | 227° |
| 2026-05-06 03:10 | 34.00326 | 140.40590 | 29957 ft | 383 kts | 226° |
| 2026-05-06 03:10 | 33.98390 | 140.38370 | 30151 ft | 383 kts | 226° |
| 2026-05-06 03:10 | 33.96475 | 140.36175 | 30377 ft | 382 kts | 227° |
| 2026-05-06 03:11 | 33.94543 | 140.33963 | 30550 ft | 383 kts | 227° |
| 2026-05-06 03:11 | 33.92622 | 140.31747 | 30721 ft | 384 kts | 227° |
| 2026-05-06 03:11 | 33.90707 | 140.29540 | 30938 ft | 384 kts | 226° |
| 2026-05-06 03:11 | 33.88752 | 140.27350 | 31128 ft | 385 kts | 225° |
| 2026-05-06 03:12 | 33.86693 | 140.25258 | 31320 ft | 387 kts | 223° |
| 2026-05-06 03:12 | 33.84547 | 140.23286 | 31523 ft | 388 kts | 220° |
| 2026-05-06 03:12 | 33.82327 | 140.21437 | 31740 ft | 390 kts | 218° |
| 2026-05-06 03:12 | 33.80029 | 140.19711 | 31945 ft | 391 kts | 216° |
| 2026-05-06 03:13 | 33.77666 | 140.18117 | 32082 ft | 395 kts | 214° |
| 2026-05-06 03:13 | 33.75200 | 140.16614 | 32200 ft | 397 kts | 212° |
| 2026-05-06 03:13 | 33.72726 | 140.15128 | 32209 ft | 398 kts | 213° |
| 2026-05-06 03:14 | 33.67761 | 140.12151 | 32215 ft | 398 kts | 213° |
| 2026-05-06 03:14 | 33.62814 | 140.09193 | 32219 ft | 398 kts | 212° |
| 2026-05-06 03:15 | 33.57892 | 140.06264 | 32221 ft | 397 kts | 212° |
| 2026-05-06 03:15 | 33.52939 | 140.03322 | 32219 ft | 396 kts | 212° |
| 2026-05-06 03:16 | 33.48004 | 140.00395 | 32210 ft | 397 kts | 213° |
| 2026-05-06 03:16 | 33.43028 | 139.97444 | 32217 ft | 397 kts | 213° |
| 2026-05-06 03:17 | 33.38106 | 139.94531 | 32219 ft | 398 kts | 212° |
| 2026-05-06 03:17 | 33.33165 | 139.91612 | 32214 ft | 395 kts | 213° |
| 2026-05-06 03:18 | 33.28227 | 139.88699 | 32219 ft | 396 kts | 212° |
| 2026-05-06 03:18 | 33.23310 | 139.85800 | 32221 ft | 395 kts | 213° |
| 2026-05-06 03:19 | 33.18431 | 139.82764 | 32220 ft | 394 kts | 217° |
| 2026-05-06 03:19 | 33.14007 | 139.79033 | 32214 ft | 385 kts | 224° |
| 2026-05-06 03:20 | 33.08417 | 139.72234 | 32215 ft | 381 kts | 235° |
| 2026-05-06 03:20 | 33.05445 | 139.67050 | 32218 ft | 379 kts | 240° |
| 2026-05-06 03:21 | 33.02676 | 139.61731 | 32220 ft | 378 kts | 240° |
| 2026-05-06 03:21 | 32.99918 | 139.56427 | 32216 ft | 377 kts | 239° |
| 2026-05-06 03:22 | 32.97173 | 139.51138 | 32217 ft | 376 kts | 240° |
| 2026-05-06 03:22 | 32.94426 | 139.45839 | 32216 ft | 376 kts | 240° |
| 2026-05-06 03:23 | 32.91683 | 139.40565 | 32213 ft | 378 kts | 239° |
| 2026-05-06 03:23 | 32.88908 | 139.35245 | 32218 ft | 378 kts | 239° |
| 2026-05-06 03:24 | 32.86137 | 139.29964 | 32211 ft | 378 kts | 239° |
| 2026-05-06 03:24 | 32.83373 | 139.24681 | 32213 ft | 377 kts | 240° |
| 2026-05-06 03:25 | 32.80598 | 139.19371 | 32210 ft | 378 kts | 240° |
| 2026-05-06 03:25 | 32.77825 | 139.14069 | 32207 ft | 378 kts | 240° |
| 2026-05-06 03:26 | 32.75040 | 139.08762 | 32204 ft | 379 kts | 240° |
| 2026-05-06 03:26 | 32.72271 | 139.03477 | 32199 ft | 380 kts | 240° |
| 2026-05-06 03:27 | 32.69489 | 138.98195 | 32191 ft | 379 kts | 240° |
| 2026-05-06 03:27 | 32.66696 | 138.92874 | 32193 ft | 380 kts | 239° |
| 2026-05-06 03:28 | 32.63920 | 138.87604 | 32195 ft | 379 kts | 239° |
| 2026-05-06 03:28 | 32.61113 | 138.82292 | 32188 ft | 380 kts | 240° |
| 2026-05-06 03:29 | 32.58318 | 138.76999 | 32184 ft | 381 kts | 239° |
| 2026-05-06 03:29 | 32.55503 | 138.71678 | 32186 ft | 381 kts | 239° |
| 2026-05-06 03:30 | 32.52683 | 138.66354 | 32180 ft | 381 kts | 239° |
| 2026-05-06 03:30 | 32.49866 | 138.61047 | 32176 ft | 382 kts | 239° |
| 2026-05-06 03:31 | 32.47040 | 138.55734 | 32173 ft | 382 kts | 239° |
| 2026-05-06 03:31 | 32.44210 | 138.50418 | 32171 ft | 384 kts | 239° |
| 2026-05-06 03:32 | 32.41365 | 138.45073 | 32170 ft | 383 kts | 239° |
| 2026-05-06 03:32 | 32.38527 | 138.39760 | 32171 ft | 384 kts | 239° |
| 2026-05-06 03:33 | 32.35672 | 138.34424 | 32167 ft | 384 kts | 238° |
| 2026-05-06 03:33 | 32.32819 | 138.29065 | 32161 ft | 385 kts | 238° |
| 2026-05-06 03:34 | 32.29967 | 138.23723 | 32162 ft | 386 kts | 239° |
| 2026-05-06 03:34 | 32.27103 | 138.18382 | 32162 ft | 386 kts | 238° |
| 2026-05-06 03:35 | 32.24228 | 138.13031 | 32162 ft | 387 kts | 238° |
| 2026-05-06 03:35 | 32.21340 | 138.07671 | 32158 ft | 386 kts | 238° |
| 2026-05-06 03:36 | 32.18471 | 138.02344 | 32164 ft | 387 kts | 238° |
| 2026-05-06 03:36 | 32.15584 | 137.96997 | 32163 ft | 388 kts | 238° |
| 2026-05-06 03:37 | 32.12689 | 137.91640 | 32159 ft | 387 kts | 238° |
| 2026-05-06 03:37 | 32.09803 | 137.86307 | 32158 ft | 388 kts | 238° |
| 2026-05-06 03:38 | 32.06889 | 137.80940 | 32153 ft | 389 kts | 238° |
| 2026-05-06 03:38 | 32.03969 | 137.75563 | 32153 ft | 390 kts | 238° |
| 2026-05-06 03:39 | 32.01065 | 137.70216 | 32148 ft | 389 kts | 238° |
| 2026-05-06 03:39 | 31.98137 | 137.64839 | 32148 ft | 389 kts | 237° |
| 2026-05-06 03:40 | 31.95226 | 137.59497 | 32142 ft | 390 kts | 238° |
| 2026-05-06 03:40 | 31.92286 | 137.54109 | 32143 ft | 392 kts | 238° |
| 2026-05-06 03:41 | 31.89345 | 137.48737 | 32143 ft | 392 kts | 237° |
| 2026-05-06 03:41 | 31.86379 | 137.43368 | 32141 ft | 391 kts | 237° |
| 2026-05-06 03:42 | 31.83437 | 137.38034 | 32134 ft | 393 kts | 237° |
| 2026-05-06 03:42 | 31.80454 | 137.32608 | 32133 ft | 394 kts | 236° |
| 2026-05-06 03:43 | 31.77501 | 137.27211 | 32131 ft | 393 kts | 237° |
| 2026-05-06 03:43 | 31.74538 | 137.21819 | 32125 ft | 396 kts | 236° |
| 2026-05-06 03:44 | 31.71557 | 137.16412 | 32128 ft | 395 kts | 237° |
| 2026-05-06 03:44 | 31.68561 | 137.10989 | 32123 ft | 396 kts | 237° |
| 2026-05-06 03:45 | 31.65580 | 137.05588 | 32116 ft | 396 kts | 237° |
| 2026-05-06 03:45 | 31.62569 | 137.00153 | 32112 ft | 397 kts | 236° |
| 2026-05-06 03:46 | 31.59563 | 136.94730 | 32115 ft | 399 kts | 236° |
| 2026-05-06 03:46 | 31.56557 | 136.89316 | 32113 ft | 399 kts | 236° |
| 2026-05-06 03:47 | 31.53529 | 136.83876 | 32114 ft | 398 kts | 236° |
| 2026-05-06 03:47 | 31.50508 | 136.78455 | 32109 ft | 400 kts | 236° |
| 2026-05-06 03:48 | 31.47461 | 136.72995 | 32112 ft | 400 kts | 235° |
| 2026-05-06 03:48 | 31.44162 | 136.67766 | 32109 ft | 399 kts | 231° |
| 2026-05-06 03:49 | 31.40466 | 136.62915 | 32108 ft | 401 kts | 226° |
| 2026-05-06 03:49 | 31.36369 | 136.58435 | 32104 ft | 405 kts | 222° |
| 2026-05-06 03:50 | 31.32143 | 136.54117 | 32103 ft | 404 kts | 222° |
| 2026-05-06 03:50 | 31.27925 | 136.49802 | 32106 ft | 405 kts | 222° |
| 2026-05-06 03:51 | 31.23673 | 136.45464 | 32098 ft | 406 kts | 221° |
| 2026-05-06 03:51 | 31.19397 | 136.41121 | 32096 ft | 408 kts | 221° |
| 2026-05-06 03:52 | 31.15128 | 136.36784 | 32099 ft | 408 kts | 222° |
| 2026-05-06 03:52 | 31.10856 | 136.32443 | 32099 ft | 409 kts | 221° |
| 2026-05-06 03:53 | 31.06587 | 136.28095 | 32094 ft | 408 kts | 221° |
| 2026-05-06 03:53 | 31.02294 | 136.23737 | 32094 ft | 409 kts | 221° |
| 2026-05-06 03:54 | 30.98013 | 136.19408 | 32091 ft | 412 kts | 220° |
| 2026-05-06 03:54 | 30.93679 | 136.15036 | 32088 ft | 413 kts | 221° |
| 2026-05-06 03:55 | 30.89308 | 136.10629 | 32090 ft | 416 kts | 221° |
| 2026-05-06 03:55 | 30.84924 | 136.06247 | 32090 ft | 415 kts | 221° |
| 2026-05-06 03:56 | 30.80569 | 136.01888 | 32082 ft | 416 kts | 221° |
| 2026-05-06 03:56 | 30.76171 | 135.97479 | 32085 ft | 417 kts | 221° |
| 2026-05-06 03:57 | 30.71790 | 135.93089 | 32079 ft | 415 kts | 221° |
| 2026-05-06 03:57 | 30.67414 | 135.88705 | 32076 ft | 416 kts | 221° |
| 2026-05-06 03:58 | 30.63058 | 135.84349 | 32066 ft | 417 kts | 221° |
| 2026-05-06 03:58 | 30.58637 | 135.79933 | 32070 ft | 418 kts | 221° |
| 2026-05-06 03:59 | 30.54253 | 135.75558 | 32067 ft | 419 kts | 221° |
| 2026-05-06 03:59 | 30.49837 | 135.71161 | 32066 ft | 420 kts | 221° |
| 2026-05-06 04:00 | 30.45428 | 135.66771 | 32064 ft | 420 kts | 221° |
| 2026-05-06 04:00 | 30.40983 | 135.62357 | 32065 ft | 421 kts | 221° |
| 2026-05-06 04:01 | 30.36676 | 135.58075 | 32058 ft | 420 kts | 221° |
| 2026-05-06 04:01 | 30.32318 | 135.53758 | 32059 ft | 421 kts | 221° |
| 2026-05-06 04:02 | 30.27958 | 135.49437 | 32055 ft | 420 kts | 221° |
| 2026-05-06 04:02 | 30.23611 | 135.45137 | 32055 ft | 422 kts | 221° |
| 2026-05-06 04:03 | 30.19202 | 135.40781 | 32048 ft | 422 kts | 220° |
| 2026-05-06 04:03 | 30.16809 | 135.38882 | 32040 ft | 423 kts | 209° |
| 2026-05-06 04:03 | 30.14136 | 135.37665 | 32038 ft | 426 kts | 197° |
| 2026-05-06 04:04 | 30.08333 | 135.36662 | 32047 ft | 430 kts | 189° |
| 2026-05-06 04:04 | 30.02442 | 135.35988 | 32045 ft | 430 kts | 189° |
| 2026-05-06 04:05 | 29.96555 | 135.35327 | 32043 ft | 431 kts | 189° |
| 2026-05-06 04:05 | 29.90567 | 135.34663 | 32045 ft | 431 kts | 188° |
| 2026-05-06 04:06 | 29.84576 | 135.33971 | 32043 ft | 432 kts | 188° |
| 2026-05-06 04:06 | 29.78621 | 135.33296 | 32042 ft | 432 kts | 188° |
| 2026-05-06 04:07 | 29.72608 | 135.32666 | 32042 ft | 432 kts | 187° |
| 2026-05-06 04:07 | 29.66652 | 135.32036 | 32042 ft | 433 kts | 188° |
| 2026-05-06 04:08 | 29.60819 | 135.30560 | 32035 ft | 426 kts | 207° |
| 2026-05-06 04:08 | 29.55898 | 135.26855 | 32042 ft | 424 kts | 218° |
| 2026-05-06 04:09 | 29.51196 | 135.22733 | 32037 ft | 423 kts | 218° |
| 2026-05-06 04:09 | 29.46523 | 135.18616 | 32035 ft | 423 kts | 219° |
| 2026-05-06 04:10 | 29.41869 | 135.14542 | 32038 ft | 423 kts | 219° |
| 2026-05-06 04:10 | 29.37162 | 135.10423 | 32030 ft | 423 kts | 219° |
| 2026-05-06 04:11 | 29.32507 | 135.06342 | 32031 ft | 424 kts | 218° |
| 2026-05-06 04:11 | 29.27823 | 135.02232 | 32028 ft | 422 kts | 218° |
| 2026-05-06 04:12 | 29.23186 | 134.98158 | 32043 ft | 423 kts | 219° |
| 2026-05-06 04:12 | 29.18492 | 134.94081 | 32043 ft | 423 kts | 219° |
| 2026-05-06 04:13 | 29.13814 | 134.90047 | 32043 ft | 423 kts | 219° |
| 2026-05-06 04:13 | 29.09101 | 134.86005 | 32039 ft | 422 kts | 219° |
| 2026-05-06 04:14 | 29.04413 | 134.81975 | 32047 ft | 423 kts | 219° |
| 2026-05-06 04:14 | 28.99678 | 134.77931 | 32045 ft | 425 kts | 219° |
| 2026-05-06 04:15 | 28.95085 | 134.73750 | 32034 ft | 422 kts | 226° |
| 2026-05-06 04:15 | 28.91412 | 134.68567 | 32039 ft | 422 kts | 234° |
| 2026-05-06 04:16 | 28.87898 | 134.63174 | 32039 ft | 423 kts | 234° |
| 2026-05-06 04:16 | 28.84368 | 134.57811 | 32035 ft | 423 kts | 234° |
| 2026-05-06 04:17 | 28.80855 | 134.52481 | 32032 ft | 424 kts | 234° |
| 2026-05-06 04:17 | 28.77301 | 134.47093 | 32029 ft | 423 kts | 234° |
| 2026-05-06 04:18 | 28.73782 | 134.41763 | 32027 ft | 423 kts | 234° |